createdAt,value
2023-07-02T00:06:41.395Z,3.90
2023-07-02T00:13:24.121Z,3.72
2023-07-02T00:20:18.697Z,3.92
2023-07-02T00:27:01.327Z,3.85
2023-07-02T00:33:45.118Z,3.05
2023-07-02T00:40:28.744Z,3.60
2023-07-02T00:47:12.555Z,3.45
2023-07-02T00:53:59.330Z,3.58
2023-07-02T01:00:43.742Z,3.22
2023-07-02T01:07:26.912Z,3.30
2023-07-02T01:14:13.536Z,3.30
2023-07-02T01:20:56.199Z,3.17
2023-07-02T01:27:38.914Z,2.85
2023-07-02T01:34:23.373Z,2.90
2023-07-02T01:41:06.096Z,3.15
2023-07-02T01:47:48.724Z,2.60
2023-07-02T01:54:33.061Z,2.90
2023-07-02T02:01:15.673Z,3.33
2023-07-02T02:07:58.292Z,3.10
2023-07-02T02:14:40.903Z,3.10
2023-07-02T02:21:23.665Z,3.00
2023-07-02T02:28:06.220Z,2.67
2023-07-02T02:34:49.339Z,2.88
2023-07-02T02:41:32.472Z,2.95
2023-07-02T02:48:16.179Z,2.70
2023-07-02T02:54:59.490Z,2.50
2023-07-02T03:01:42.198Z,3.33
2023-07-02T03:08:24.820Z,3.03
2023-07-02T03:15:08.103Z,3.10
2023-07-02T03:21:50.901Z,2.63
2023-07-02T03:28:35.975Z,3.22
2023-07-02T03:35:18.800Z,3.22
2023-07-02T03:42:01.361Z,3.42
2023-07-02T03:48:43.969Z,3.95
2023-07-02T03:55:26.545Z,3.65
2023-07-02T04:02:09.223Z,4.50
2023-07-02T04:08:52.216Z,3.85
2023-07-02T04:15:35.301Z,3.92
2023-07-02T04:22:19.284Z,4.00
2023-07-02T04:29:01.905Z,4.95
2023-07-02T04:35:44.620Z,4.40
2023-07-02T04:42:32.842Z,4.50
2023-07-02T04:49:15.981Z,4.38
2023-07-02T04:55:59.231Z,4.70
2023-07-02T05:02:42.086Z,4.28
2023-07-02T05:09:24.756Z,4.07
2023-07-02T05:16:07.443Z,4.43
2023-07-02T05:22:50.188Z,4.93
2023-07-02T05:29:32.895Z,4.47
2023-07-02T05:36:15.928Z,3.78
2023-07-02T05:42:58.496Z,3.85
2023-07-02T05:49:43.743Z,3.70
2023-07-02T05:56:26.291Z,4.05
2023-07-02T06:03:09.115Z,4.50
2023-07-02T06:09:51.956Z,5.00
2023-07-02T06:16:34.795Z,5.72
2023-07-02T06:23:17.506Z,5.32
2023-07-02T06:30:00.095Z,5.80
2023-07-02T06:36:43.413Z,6.68
2023-07-02T06:43:25.982Z,8.52
2023-07-02T06:50:08.914Z,8.88
2023-07-02T06:56:51.676Z,8.18
2023-07-02T07:03:34.316Z,7.70
2023-07-02T07:10:16.976Z,7.60
2023-07-02T07:16:59.588Z,8.07
2023-07-02T07:23:42.198Z,9.43
2023-07-02T07:30:24.860Z,9.00
2023-07-02T07:37:07.548Z,10.93
2023-07-02T07:43:51.198Z,12.02
2023-07-02T07:50:34.027Z,11.85
2023-07-02T07:57:18.067Z,12.40
2023-07-02T08:04:00.699Z,13.52
2023-07-02T08:10:43.482Z,12.43
2023-07-02T08:17:26.164Z,13.32
2023-07-02T08:24:08.970Z,13.38
2023-07-02T08:30:51.671Z,12.90
2023-07-02T08:37:34.403Z,13.50
2023-07-02T08:44:21.489Z,12.73
2023-07-02T08:51:04.466Z,11.68
2023-07-02T08:57:51.166Z,12.02
2023-07-02T09:04:33.847Z,11.13
2023-07-02T09:11:21.110Z,11.90
2023-07-02T09:18:03.883Z,13.27
2023-07-02T09:24:58.957Z,11.98
2023-07-02T09:31:59.640Z,12.32
2023-07-02T09:38:46.711Z,13.60
2023-07-02T09:45:29.341Z,13.13
2023-07-02T09:52:13.053Z,11.60
2023-07-02T09:58:55.737Z,14.27
2023-07-02T10:05:38.838Z,12.55
2023-07-02T10:12:31.070Z,12.38
2023-07-02T10:19:14.472Z,13.10
2023-07-02T10:25:57.078Z,15.00
2023-07-02T10:32:40.059Z,13.40
2023-07-02T10:39:22.713Z,12.45
2023-07-02T10:46:06.228Z,19.95
2023-07-02T10:52:51.674Z,12.70
2023-07-02T10:59:34.722Z,15.23
2023-07-02T11:06:17.371Z,14.95
2023-07-02T11:12:59.953Z,13.70
2023-07-02T11:19:42.527Z,14.10
2023-07-02T11:26:35.383Z,14.13
2023-07-02T11:33:17.998Z,12.80
2023-07-02T11:40:00.629Z,12.52
2023-07-02T11:46:43.276Z,12.30
2023-07-02T11:53:26.298Z,12.38
2023-07-02T12:00:09.332Z,16.55
2023-07-02T12:06:52.885Z,13.70
2023-07-02T12:13:35.570Z,11.70
2023-07-02T12:20:18.340Z,15.57
2023-07-02T12:27:00.934Z,17.50
2023-07-02T12:33:43.559Z,12.98
2023-07-02T12:40:26.307Z,12.90
2023-07-02T12:47:09.796Z,13.30
2023-07-02T12:53:52.383Z,13.50
2023-07-02T13:00:35.626Z,19.58
2023-07-02T13:07:18.450Z,13.23
2023-07-02T13:14:01.163Z,20.02
2023-07-02T13:20:43.743Z,12.55
2023-07-02T13:27:27.177Z,13.20
2023-07-02T13:34:09.769Z,12.75
2023-07-02T13:40:52.360Z,13.88
2023-07-02T13:47:35.038Z,12.82
2023-07-02T13:54:19.620Z,13.82
2023-07-02T14:01:02.441Z,13.98
2023-07-02T14:07:45.690Z,13.77
2023-07-02T14:14:28.365Z,18.02
2023-07-02T14:21:10.962Z,13.82
2023-07-02T14:27:53.673Z,13.00
2023-07-02T14:34:36.483Z,12.13
2023-07-02T14:41:19.198Z,13.73
2023-07-02T14:48:01.931Z,12.02
2023-07-02T14:54:44.583Z,12.63
2023-07-02T15:01:27.266Z,11.80
2023-07-02T15:08:11.026Z,12.82
2023-07-02T15:14:53.617Z,12.90
2023-07-02T15:21:36.195Z,12.23
2023-07-02T15:28:19.542Z,12.20
2023-07-02T15:35:02.179Z,12.80
2023-07-02T15:41:44.742Z,13.43
2023-07-02T15:48:27.375Z,12.50
2023-07-02T15:55:09.996Z,13.48
2023-07-02T16:01:52.657Z,13.30
2023-07-02T16:08:35.673Z,12.77
2023-07-02T16:15:18.405Z,13.27
2023-07-02T16:22:01.652Z,12.05
2023-07-02T16:28:44.302Z,12.50
2023-07-02T16:35:26.911Z,12.35
2023-07-02T16:42:09.674Z,14.43
2023-07-02T16:48:52.426Z,12.77
2023-07-02T16:55:39.997Z,12.65
2023-07-02T17:02:22.765Z,13.40
2023-07-02T17:09:22.208Z,12.15
2023-07-02T17:16:05.995Z,12.07
2023-07-02T17:22:48.649Z,12.30
2023-07-02T17:29:32.545Z,13.75
2023-07-02T17:36:18.137Z,12.77
2023-07-02T17:43:00.896Z,12.18
2023-07-02T17:49:46.110Z,16.30
2023-07-02T17:56:29.240Z,14.10
2023-07-02T18:03:11.913Z,13.88
2023-07-02T18:09:54.903Z,13.20
2023-07-02T18:16:37.679Z,14.60
2023-07-02T18:23:21.005Z,13.93
2023-07-02T18:30:04.824Z,14.30
2023-07-02T18:36:50.029Z,13.52
2023-07-02T18:43:36.941Z,14.23
2023-07-02T18:50:19.551Z,13.55
2023-07-02T18:57:06.549Z,14.50
2023-07-02T19:03:49.324Z,14.45
2023-07-02T19:10:32.030Z,13.70
2023-07-02T19:17:16.298Z,13.60
2023-07-02T19:24:00.002Z,13.32
2023-07-02T19:30:42.654Z,13.82
2023-07-02T19:37:25.662Z,13.65
2023-07-02T19:44:08.731Z,14.27
2023-07-02T19:51:02.748Z,12.57
2023-07-02T19:57:45.496Z,12.55
2023-07-02T20:04:30.755Z,13.88
2023-07-02T20:11:13.480Z,14.32
2023-07-02T20:17:56.190Z,13.80
2023-07-02T20:24:38.781Z,11.95
2023-07-02T20:31:21.568Z,14.70
2023-07-02T20:38:04.698Z,14.40
2023-07-02T20:44:50.512Z,12.77
2023-07-02T20:51:34.508Z,12.93
2023-07-02T20:58:17.219Z,12.45
2023-07-02T21:04:59.788Z,12.45
2023-07-02T21:11:42.404Z,13.35
2023-07-02T21:18:26.000Z,12.35
2023-07-02T21:25:09.556Z,13.15
2023-07-02T21:31:52.395Z,12.45
2023-07-02T21:38:38.386Z,12.52
2023-07-02T21:45:21.396Z,13.10
2023-07-02T21:52:04.225Z,12.82
2023-07-02T21:58:49.315Z,12.90
2023-07-02T22:05:32.390Z,12.95
2023-07-02T22:12:14.986Z,12.60
2023-07-02T22:18:57.547Z,12.77
2023-07-02T22:25:43.448Z,12.23
2023-07-02T22:32:26.235Z,12.40
2023-07-02T22:39:08.902Z,12.95
2023-07-02T22:45:52.090Z,12.27
2023-07-02T22:52:36.175Z,12.55
2023-07-02T22:59:18.785Z,11.93
2023-07-02T23:06:01.709Z,12.55
2023-07-02T23:12:46.492Z,12.55
2023-07-02T23:19:30.148Z,12.07
2023-07-02T23:26:19.173Z,13.45
2023-07-02T23:33:06.895Z,13.07
2023-07-02T23:39:52.485Z,13.77
2023-07-02T23:46:35.732Z,13.80
2023-07-02T23:53:18.413Z,13.30
